»·PEaware :: XSR697 KSBP-KCNO

XSR697 :: KSBP-KCNO

FLIGHT INFORMATION

Flight Status: Arrived
Operator: Unknown
More flights by this operator :: More flights under this callsign
Pilot: Chris S. (2256)
Aircraft: EMBRAER PHENOM 300
(E55P)
More flights by this aircraft type
Origin: KSBP San Luis Co Regl
United States
Destination: KCNO Chino
United States
More flights between these airports :: More routes between these airports
Route: +RZS V386 FIM V186 ITSME V264 POM V197 PDZ
File this flight plan on PilotEdge
Remarks:
Altitude:
(Current/Filed)
11,000ft
Speed:
(Current/Filed)
350kts
Departed: 07-Sep-18 05:53 PM
Arrived: 07-Sep-18 06:44 PM
Distance/Time
Traveled:
167nm/0:51
Distance/Time
To Go:
Arrived

Flight Plot

Page will automatically refresh every two minutes.

Flight plan parsing failed; only flown route is shown


Map Options




Map Legend


Flown Route
Filed Route
Departure Airport
Arrival Airport
Navaid (VOR, NDB)
Fix

Horizontal Profiles

Position Reports

Time Latitude Longitude Heading Altitude Ground
Speed
07-Sep-18 17:48 35.238713 -120.638676 271 215ft 0kts
07-Sep-18 17:49 35.238713 -120.638676 271 215ft 0kts
07-Sep-18 17:50 35.238713 -120.638676 271 215ft 0kts
07-Sep-18 17:51 35.237744 -120.638751 177 215ft 8kts
07-Sep-18 17:52 35.236563 -120.637781 124 215ft 11kts
07-Sep-18 17:53 35.234092 -120.633449 125 215ft 16kts
07-Sep-18 17:54 35.233301 -120.632586 213 215ft 0kts
07-Sep-18 17:55 35.236554 -120.639662 306 228ft 111kts
07-Sep-18 17:56 35.254928 -120.669651 308 1771ft 200kts
07-Sep-18 17:57 35.295951 -120.735134 308 4957ft 265kts
07-Sep-18 17:58 35.341429 -120.806159 308 5890ft 266kts
07-Sep-18 17:59 35.387924 -120.878510 306 7844ft 268kts
07-Sep-18 18:00 35.364227 -120.945804 179 7990ft 274kts
07-Sep-18 18:01 35.304246 -120.889358 130 8698ft 291kts
07-Sep-18 18:02 35.250334 -120.813229 132 10429ft 301kts
07-Sep-18 18:03 35.191645 -120.732876 130 11004ft 335kts
07-Sep-18 18:04 35.129571 -120.642073 129 11011ft 357kts
07-Sep-18 18:05 35.064827 -120.548198 130 11017ft 364kts
07-Sep-18 18:06 34.998009 -120.455062 131 11003ft 366kts
07-Sep-18 18:07 34.930404 -120.361327 130 11000ft 367kts
07-Sep-18 18:08 34.863944 -120.267239 129 11001ft 367kts
07-Sep-18 18:09 34.797051 -120.173002 130 10997ft 367kts
07-Sep-18 18:10 34.729983 -120.079174 130 10990ft 367kts
07-Sep-18 18:11 34.662993 -119.985247 129 10983ft 367kts
07-Sep-18 18:12 34.595991 -119.891691 129 10992ft 366kts
07-Sep-18 18:13 34.528167 -119.799616 130 10993ft 366kts
07-Sep-18 18:14 34.475231 -119.696697 101 11002ft 362kts
07-Sep-18 18:15 34.473008 -119.575037 85 11009ft 361kts
07-Sep-18 18:16 34.457997 -119.455628 105 11019ft 363kts
07-Sep-18 18:17 34.439108 -119.335853 97 11025ft 362kts
07-Sep-18 18:18 34.420978 -119.215578 101 11028ft 363kts
07-Sep-18 18:19 34.400708 -119.095872 100 11015ft 363kts
07-Sep-18 18:20 34.381858 -118.975863 99 11024ft 362kts
07-Sep-18 18:21 34.357397 -118.858380 120 11036ft 363kts
07-Sep-18 18:22 34.309112 -118.754403 101 11030ft 362kts
07-Sep-18 18:23 34.263115 -118.646491 113 11006ft 363kts
07-Sep-18 18:24 34.225799 -118.532890 110 10988ft 363kts
07-Sep-18 18:25 34.203841 -118.426185 97 10984ft 361kts
07-Sep-18 18:26 34.183865 -118.307682 112 10976ft 362kts
07-Sep-18 18:27 34.131566 -118.204416 111 10980ft 361kts
07-Sep-18 18:28 34.088072 -118.096638 112 10977ft 361kts
07-Sep-18 18:29 34.076501 -117.979428 76 10974ft 359kts
07-Sep-18 18:30 34.081828 -117.861216 107 10339ft 337kts
07-Sep-18 18:31 34.080620 -117.767295 97 9538ft 264kts
07-Sep-18 18:32 34.038272 -117.698171 146 7839ft 266kts
07-Sep-18 18:33 33.986256 -117.641397 117 6138ft 251kts
07-Sep-18 18:34 33.946141 -117.574570 130 4438ft 244kts
07-Sep-18 18:35 33.921159 -117.504500 87 3982ft 242kts
07-Sep-18 18:36 33.945952 -117.435341 32 3973ft 230kts
07-Sep-18 18:37 34.006906 -117.433994 343 3976ft 224kts
07-Sep-18 18:38 34.064326 -117.455231 330 3826ft 198kts
07-Sep-18 18:39 34.107502 -117.497078 275 4029ft 209kts
07-Sep-18 18:40 34.070837 -117.530272 185 3362ft 161kts
07-Sep-18 18:41 34.049465 -117.551902 313 1850ft 134kts
07-Sep-18 18:42 34.057061 -117.590931 269 1463ft 143kts
07-Sep-18 18:43 34.024177 -117.613284 172 2340ft 151kts
07-Sep-18 18:44 33.987679 -117.599229 203 1484ft 119kts
07-Sep-18 18:45 33.975898 -117.632081 268 662ft 108kts
07-Sep-18 18:46 33.976181 -117.644114 345 655ft 11kts
07-Sep-18 18:47 33.976867 -117.641395 92 655ft 17kts
07-Sep-18 18:48 33.976867 -117.639796 89 655ft 0kts
07-Sep-18 18:49 33.976871 -117.639566 88 655ft 6kts
07-Sep-18 18:50 33.976996 -117.636325 70 655ft 10kts
07-Sep-18 18:51 33.977930 -117.636269 141 655ft 2kts
07-Sep-18 18:52 33.977871 -117.636206 137 655ft 0kts
07-Sep-18 18:53 33.977871 -117.636206 137 655ft 0kts
07-Sep-18 18:54 33.977871 -117.636206 137 655ft 0kts
07-Sep-18 18:55 33.977871 -117.636206 137 655ft 0kts
07-Sep-18 18:56 33.977871 -117.636206 137 655ft 0kts
07-Sep-18 18:57 33.977871 -117.636206 137 655ft 0kts
07-Sep-18 18:58 33.977871 -117.636206 137 655ft 0kts
07-Sep-18 18:59 33.977871 -117.636206 137 655ft 0kts

Navigation Log

Ident Type
Flight plan parsing failed, navigation log unavailable